sensor_id;sensor_type;location;lat;lon;timestamp;pressure;altitude;pressure_sealevel;temperature;humidity
25498;BME280;13406;53.380;7.226;2023-12-29T00:00:39;100625.06;;;9.07;100.00
25498;BME280;13406;53.380;7.226;2023-12-29T00:03:05;100618.75;;;9.15;100.00
25498;BME280;13406;53.380;7.226;2023-12-29T00:05:30;100607.44;;;9.19;100.00
25498;BME280;13406;53.380;7.226;2023-12-29T00:07:56;100567.72;;;8.88;100.00
25498;BME280;13406;53.380;7.226;2023-12-29T00:10:21;100640.00;;;9.23;100.00
25498;BME280;13406;53.380;7.226;2023-12-29T00:12:47;100519.34;;;8.62;100.00
25498;BME280;13406;53.380;7.226;2023-12-29T00:15:12;100602.16;;;9.26;100.00
25498;BME280;13406;53.380;7.226;2023-12-29T00:17:38;100594.25;;;9.18;100.00
25498;BME280;13406;53.380;7.226;2023-12-29T00:20:06;100575.25;;;9.06;100.00
25498;BME280;13406;53.380;7.226;2023-12-29T00:22:33;100498.50;;;8.78;100.00
25498;BME280;13406;53.380;7.226;2023-12-29T00:24:59;100618.28;;;9.39;100.00
25498;BME280;13406;53.380;7.226;2023-12-29T00:27:24;100512.31;;;8.82;100.00
25498;BME280;13406;53.380;7.226;2023-12-29T00:29:50;100603.91;;;9.47;100.00
25498;BME280;13406;53.380;7.226;2023-12-29T00:32:15;100588.38;;;9.29;100.00
25498;BME280;13406;53.380;7.226;2023-12-29T00:34:41;100625.75;;;9.50;100.00
25498;BME280;13406;53.380;7.226;2023-12-29T00:37:06;100567.09;;;9.21;100.00
25498;BME280;13406;53.380;7.226;2023-12-29T00:39:33;100624.97;;;9.57;100.00
25498;BME280;13406;53.380;7.226;2023-12-29T00:42:04;100609.28;;;9.47;100.00
25498;BME280;13406;53.380;7.226;2023-12-29T00:44:30;100626.97;;;9.48;100.00
25498;BME280;13406;53.380;7.226;2023-12-29T00:46:55;100616.75;;;9.58;100.00
25498;BME280;13406;53.380;7.226;2023-12-29T00:49:20;100601.00;;;9.42;100.00
25498;BME280;13406;53.380;7.226;2023-12-29T00:51:47;100624.06;;;9.43;100.00
25498;BME280;13406;53.380;7.226;2023-12-29T00:54:13;100638.16;;;9.58;100.00
25498;BME280;13406;53.380;7.226;2023-12-29T00:56:38;100607.97;;;9.36;100.00
25498;BME280;13406;53.380;7.226;2023-12-29T00:59:03;100651.41;;;9.66;100.00
25498;BME280;13406;53.380;7.226;2023-12-29T01:01:33;100627.88;;;9.62;100.00
25498;BME280;13406;53.380;7.226;2023-12-29T01:03:59;100591.72;;;9.38;100.00
25498;BME280;13406;53.380;7.226;2023-12-29T01:06:24;100575.94;;;9.15;100.00
25498;BME280;13406;53.380;7.226;2023-12-29T01:08:49;100629.75;;;9.61;100.00
25498;BME280;13406;53.380;7.226;2023-12-29T01:11:15;100544.94;;;8.99;100.00
25498;BME280;13406;53.380;7.226;2023-12-29T01:13:40;100611.66;;;9.35;100.00
25498;BME280;13406;53.380;7.226;2023-12-29T01:16:06;100571.00;;;9.18;100.00
25498;BME280;13406;53.380;7.226;2023-12-29T01:18:32;100543.97;;;9.07;100.00
25498;BME280;13406;53.380;7.226;2023-12-29T01:20:57;100552.25;;;9.12;100.00
25498;BME280;13406;53.380;7.226;2023-12-29T01:23:22;100572.69;;;9.26;100.00
25498;BME280;13406;53.380;7.226;2023-12-29T01:25:48;100588.56;;;9.27;100.00
25498;BME280;13406;53.380;7.226;2023-12-29T01:28:13;100570.25;;;9.31;100.00
25498;BME280;13406;53.380;7.226;2023-12-29T01:30:39;100513.31;;;9.09;100.00
25498;BME280;13406;53.380;7.226;2023-12-29T01:33:04;100513.31;;;9.09;100.00
25498;BME280;13406;53.380;7.226;2023-12-29T01:35:30;100476.72;;;8.81;100.00
25498;BME280;13406;53.380;7.226;2023-12-29T01:37:55;100471.22;;;8.90;100.00
25498;BME280;13406;53.380;7.226;2023-12-29T01:40:22;100529.22;;;9.17;100.00
25498;BME280;13406;53.380;7.226;2023-12-29T01:42:48;100568.47;;;9.45;100.00
25498;BME280;13406;53.380;7.226;2023-12-29T01:45:21;100552.38;;;9.38;100.00
25498;BME280;13406;53.380;7.226;2023-12-29T01:47:48;100532.31;;;9.21;100.00
25498;BME280;13406;53.380;7.226;2023-12-29T01:50:14;100518.03;;;9.07;100.00
25498;BME280;13406;53.380;7.226;2023-12-29T01:52:41;100539.56;;;9.27;100.00
25498;BME280;13406;53.380;7.226;2023-12-29T01:55:10;100514.00;;;9.24;100.00
25498;BME280;13406;53.380;7.226;2023-12-29T01:57:38;100505.22;;;9.02;100.00
25498;BME280;13406;53.380;7.226;2023-12-29T02:00:05;100545.50;;;9.22;100.00
25498;BME280;13406;53.380;7.226;2023-12-29T02:02:31;100510.00;;;9.07;100.00
25498;BME280;13406;53.380;7.226;2023-12-29T02:04:57;100543.84;;;9.21;100.00
25498;BME280;13406;53.380;7.226;2023-12-29T02:07:23;100534.19;;;9.20;100.00
25498;BME280;13406;53.380;7.226;2023-12-29T02:09:49;100546.16;;;9.31;100.00
25498;BME280;13406;53.380;7.226;2023-12-29T02:12:17;100512.09;;;9.12;100.00
25498;BME280;13406;53.380;7.226;2023-12-29T02:14:42;100530.50;;;9.28;100.00
25498;BME280;13406;53.380;7.226;2023-12-29T02:17:15;100528.44;;;9.23;100.00
25498;BME280;13406;53.380;7.226;2023-12-29T02:19:43;100495.00;;;9.13;100.00
25498;BME280;13406;53.380;7.226;2023-12-29T02:22:10;100469.44;;;9.03;100.00
25498;BME280;13406;53.380;7.226;2023-12-29T02:24:37;100409.19;;;8.73;100.00
25498;BME280;13406;53.380;7.226;2023-12-29T02:27:12;100474.91;;;9.23;100.00
25498;BME280;13406;53.380;7.226;2023-12-29T02:29:44;100473.44;;;9.14;100.00
25498;BME280;13406;53.380;7.226;2023-12-29T02:32:13;100474.09;;;9.23;100.00
25498;BME280;13406;53.380;7.226;2023-12-29T02:34:43;100532.97;;;9.30;100.00
25498;BME280;13406;53.380;7.226;2023-12-29T02:37:10;100563.81;;;9.25;100.00
25498;BME280;13406;53.380;7.226;2023-12-29T02:39:37;100544.50;;;8.95;100.00
25498;BME280;13406;53.380;7.226;2023-12-29T02:42:02;100596.19;;;9.02;100.00
25498;BME280;13406;53.380;7.226;2023-12-29T02:44:28;100642.13;;;9.06;100.00
25498;BME280;13406;53.380;7.226;2023-12-29T02:46:53;100671.00;;;8.89;100.00
25498;BME280;13406;53.380;7.226;2023-12-29T02:49:19;100723.47;;;9.12;100.00
25498;BME280;13406;53.380;7.226;2023-12-29T02:51:44;100741.69;;;9.01;100.00
25498;BME280;13406;53.380;7.226;2023-12-29T02:54:11;100771.00;;;8.88;100.00
25498;BME280;13406;53.380;7.226;2023-12-29T02:56:36;100721.97;;;8.45;100.00
25498;BME280;13406;53.380;7.226;2023-12-29T02:59:02;100734.09;;;8.47;100.00
25498;BME280;13406;53.380;7.226;2023-12-29T03:01:27;100755.81;;;8.59;100.00
25498;BME280;13406;53.380;7.226;2023-12-29T03:03:54;100743.09;;;8.61;100.00
25498;BME280;13406;53.380;7.226;2023-12-29T03:06:19;100700.81;;;8.35;100.00
25498;BME280;13406;53.380;7.226;2023-12-29T03:08:45;100649.72;;;8.23;100.00
25498;BME280;13406;53.380;7.226;2023-12-29T03:11:10;100676.75;;;8.13;100.00
25498;BME280;13406;53.380;7.226;2023-12-29T03:13:36;100607.69;;;7.81;100.00
25498;BME280;13406;53.380;7.226;2023-12-29T03:16:01;100573.59;;;7.61;100.00
25498;BME280;13406;53.380;7.226;2023-12-29T03:18:26;100609.47;;;8.10;100.00
25498;BME280;13406;53.380;7.226;2023-12-29T03:20:52;100584.38;;;7.89;100.00
25498;BME280;13406;53.380;7.226;2023-12-29T03:23:17;100617.97;;;8.35;100.00
25498;BME280;13406;53.380;7.226;2023-12-29T03:25:43;100587.50;;;8.29;100.00
25498;BME280;13406;53.380;7.226;2023-12-29T03:28:08;100598.25;;;8.51;100.00
25498;BME280;13406;53.380;7.226;2023-12-29T03:30:33;100414.97;;;7.34;100.00
25498;BME280;13406;53.380;7.226;2023-12-29T03:32:59;100580.16;;;8.53;100.00
25498;BME280;13406;53.380;7.226;2023-12-29T03:35:24;100601.09;;;8.71;100.00
25498;BME280;13406;53.380;7.226;2023-12-29T03:37:50;100605.84;;;8.75;100.00
25498;BME280;13406;53.380;7.226;2023-12-29T03:40:15;100610.00;;;8.78;100.00
25498;BME280;13406;53.380;7.226;2023-12-29T03:42:42;100607.38;;;8.85;100.00
25498;BME280;13406;53.380;7.226;2023-12-29T03:45:08;100591.47;;;8.76;100.00
25498;BME280;13406;53.380;7.226;2023-12-29T03:47:33;100530.25;;;8.38;100.00
25498;BME280;13406;53.380;7.226;2023-12-29T03:49:58;100578.56;;;8.80;100.00
25498;BME280;13406;53.380;7.226;2023-12-29T03:52:24;100525.91;;;8.59;100.00
25498;BME280;13406;53.380;7.226;2023-12-29T03:54:49;100583.97;;;8.93;100.00
25498;BME280;13406;53.380;7.226;2023-12-29T03:57:15;100577.78;;;8.86;100.00
25498;BME280;13406;53.380;7.226;2023-12-29T03:59:40;100570.19;;;8.90;100.00
25498;BME280;13406;53.380;7.226;2023-12-29T04:02:06;100533.25;;;8.78;100.00
25498;BME280;13406;53.380;7.226;2023-12-29T04:04:31;100514.25;;;8.67;100.00
25498;BME280;13406;53.380;7.226;2023-12-29T04:06:57;100496.75;;;8.64;100.00
25498;BME280;13406;53.380;7.226;2023-12-29T04:09:22;100508.94;;;8.73;100.00
25498;BME280;13406;53.380;7.226;2023-12-29T04:11:48;100547.66;;;9.05;100.00
25498;BME280;13406;53.380;7.226;2023-12-29T04:14:13;100475.75;;;8.61;100.00
25498;BME280;13406;53.380;7.226;2023-12-29T04:16:39;100501.22;;;8.85;100.00
25498;BME280;13406;53.380;7.226;2023-12-29T04:19:05;100539.94;;;9.17;100.00
25498;BME280;13406;53.380;7.226;2023-12-29T04:21:31;100521.53;;;9.08;100.00
25498;BME280;13406;53.380;7.226;2023-12-29T04:23:56;100524.19;;;9.08;100.00
25498;BME280;13406;53.380;7.226;2023-12-29T04:26:21;100561.75;;;9.21;100.00
25498;BME280;13406;53.380;7.226;2023-12-29T04:28:47;100568.97;;;9.20;100.00
25498;BME280;13406;53.380;7.226;2023-12-29T04:31:12;100527.47;;;9.03;100.00
25498;BME280;13406;53.380;7.226;2023-12-29T04:33:38;100579.41;;;9.15;100.00
25498;BME280;13406;53.380;7.226;2023-12-29T04:36:03;100559.91;;;8.93;100.00
25498;BME280;13406;53.380;7.226;2023-12-29T04:38:29;100596.28;;;9.16;100.00
25498;BME280;13406;53.380;7.226;2023-12-29T04:40:54;100608.88;;;9.22;100.00
25498;BME280;13406;53.380;7.226;2023-12-29T04:43:20;100620.63;;;9.21;100.00
25498;BME280;13406;53.380;7.226;2023-12-29T04:45:45;100550.72;;;8.74;100.00
25498;BME280;13406;53.380;7.226;2023-12-29T04:48:11;100627.03;;;8.98;100.00
25498;BME280;13406;53.380;7.226;2023-12-29T04:50:37;100624.63;;;9.03;100.00
25498;BME280;13406;53.380;7.226;2023-12-29T04:53:02;100651.72;;;9.22;100.00
25498;BME280;13406;53.380;7.226;2023-12-29T04:55:28;100595.47;;;8.87;100.00
25498;BME280;13406;53.380;7.226;2023-12-29T04:57:53;100611.19;;;8.97;100.00
25498;BME280;13406;53.380;7.226;2023-12-29T05:00:19;100594.91;;;8.92;100.00
25498;BME280;13406;53.380;7.226;2023-12-29T05:02:44;100630.16;;;9.02;100.00
25498;BME280;13406;53.380;7.226;2023-12-29T05:05:09;100655.22;;;9.22;100.00
25498;BME280;13406;53.380;7.226;2023-12-29T05:07:35;100581.53;;;8.70;100.00
25498;BME280;13406;53.380;7.226;2023-12-29T05:10:00;100624.56;;;8.97;100.00
25498;BME280;13406;53.380;7.226;2023-12-29T05:12:26;100673.16;;;9.28;100.00
25498;BME280;13406;53.380;7.226;2023-12-29T05:14:51;100666.91;;;9.15;100.00
25498;BME280;13406;53.380;7.226;2023-12-29T05:17:17;100686.75;;;9.27;100.00
25498;BME280;13406;53.380;7.226;2023-12-29T05:19:42;100620.56;;;8.86;100.00
25498;BME280;13406;53.380;7.226;2023-12-29T05:22:08;100671.44;;;9.14;100.00
25498;BME280;13406;53.380;7.226;2023-12-29T05:24:33;100696.38;;;9.21;100.00
25498;BME280;13406;53.380;7.226;2023-12-29T05:26:58;100726.09;;;9.26;100.00
25498;BME280;13406;53.380;7.226;2023-12-29T05:29:24;100698.94;;;9.08;100.00
25498;BME280;13406;53.380;7.226;2023-12-29T05:31:49;100747.75;;;9.32;100.00
25498;BME280;13406;53.380;7.226;2023-12-29T05:34:15;100758.66;;;9.09;100.00
25498;BME280;13406;53.380;7.226;2023-12-29T05:36:40;100783.28;;;9.25;100.00
25498;BME280;13406;53.380;7.226;2023-12-29T05:39:07;100822.06;;;9.30;100.00
25498;BME280;13406;53.380;7.226;2023-12-29T05:41:32;100792.84;;;9.13;100.00
25498;BME280;13406;53.380;7.226;2023-12-29T05:43:58;100657.63;;;8.31;100.00
25498;BME280;13406;53.380;7.226;2023-12-29T05:46:24;100784.56;;;9.08;100.00
25498;BME280;13406;53.380;7.226;2023-12-29T05:48:49;100767.06;;;9.05;100.00
25498;BME280;13406;53.380;7.226;2023-12-29T05:51:17;100747.31;;;9.07;100.00
25498;BME280;13406;53.380;7.226;2023-12-29T05:53:43;100745.81;;;9.25;100.00
25498;BME280;13406;53.380;7.226;2023-12-29T05:56:12;100729.31;;;9.22;100.00
25498;BME280;13406;53.380;7.226;2023-12-29T05:58:40;100737.59;;;9.27;100.00
25498;BME280;13406;53.380;7.226;2023-12-29T06:01:05;100645.47;;;8.87;100.00
25498;BME280;13406;53.380;7.226;2023-12-29T06:03:31;100659.13;;;8.98;100.00
25498;BME280;13406;53.380;7.226;2023-12-29T06:05:56;100604.38;;;8.73;100.00
25498;BME280;13406;53.380;7.226;2023-12-29T06:08:22;100669.56;;;9.15;100.00
25498;BME280;13406;53.380;7.226;2023-12-29T06:10:47;100693.97;;;9.26;100.00
25498;BME280;13406;53.380;7.226;2023-12-29T06:13:13;100720.38;;;9.36;100.00
25498;BME280;13406;53.380;7.226;2023-12-29T06:15:38;100689.91;;;9.37;100.00
25498;BME280;13406;53.380;7.226;2023-12-29T06:18:04;100679.38;;;9.29;100.00
25498;BME280;13406;53.380;7.226;2023-12-29T06:20:30;100683.00;;;9.21;100.00
25498;BME280;13406;53.380;7.226;2023-12-29T06:22:55;100696.63;;;9.26;100.00
25498;BME280;13406;53.380;7.226;2023-12-29T06:25:21;100721.28;;;9.43;100.00
25498;BME280;13406;53.380;7.226;2023-12-29T06:27:46;100670.47;;;9.00;100.00
25498;BME280;13406;53.380;7.226;2023-12-29T06:30:12;100729.44;;;9.35;100.00
25498;BME280;13406;53.380;7.226;2023-12-29T06:32:38;100634.56;;;8.67;100.00
25498;BME280;13406;53.380;7.226;2023-12-29T06:35:04;100679.13;;;9.02;100.00
25498;BME280;13406;53.380;7.226;2023-12-29T06:37:30;100751.72;;;9.42;100.00
25498;BME280;13406;53.380;7.226;2023-12-29T06:39:56;100692.88;;;8.99;100.00
25498;BME280;13406;53.380;7.226;2023-12-29T06:42:21;100729.63;;;9.34;100.00
25498;BME280;13406;53.380;7.226;2023-12-29T06:44:48;100740.59;;;9.39;100.00
25498;BME280;13406;53.380;7.226;2023-12-29T06:47:13;100727.47;;;9.22;100.00
25498;BME280;13406;53.380;7.226;2023-12-29T06:49:39;100699.63;;;9.17;100.00
25498;BME280;13406;53.380;7.226;2023-12-29T06:52:04;100710.63;;;9.28;100.00
25498;BME280;13406;53.380;7.226;2023-12-29T06:54:30;100668.63;;;9.01;100.00
25498;BME280;13406;53.380;7.226;2023-12-29T06:56:55;100679.91;;;9.18;100.00
25498;BME280;13406;53.380;7.226;2023-12-29T06:59:22;100618.28;;;8.83;100.00
25498;BME280;13406;53.380;7.226;2023-12-29T07:01:47;100547.03;;;8.11;100.00
25498;BME280;13406;53.380;7.226;2023-12-29T07:04:13;100612.50;;;8.79;100.00
25498;BME280;13406;53.380;7.226;2023-12-29T07:06:40;100599.75;;;8.60;100.00
25498;BME280;13406;53.380;7.226;2023-12-29T07:09:06;100538.84;;;8.34;100.00
25498;BME280;13406;53.380;7.226;2023-12-29T07:11:32;100588.03;;;8.61;100.00
25498;BME280;13406;53.380;7.226;2023-12-29T07:13:58;100599.44;;;8.48;100.00
25498;BME280;13406;53.380;7.226;2023-12-29T07:16:23;100601.34;;;8.54;100.00
25498;BME280;13406;53.380;7.226;2023-12-29T07:18:49;100575.13;;;8.43;100.00
25498;BME280;13406;53.380;7.226;2023-12-29T07:21:15;100539.13;;;8.24;100.00
25498;BME280;13406;53.380;7.226;2023-12-29T07:23:41;100594.53;;;8.52;100.00
25498;BME280;13406;53.380;7.226;2023-12-29T07:26:07;100515.94;;;8.25;100.00
25498;BME280;13406;53.380;7.226;2023-12-29T07:28:33;100524.00;;;8.31;100.00
25498;BME280;13406;53.380;7.226;2023-12-29T07:30:59;100547.75;;;8.41;100.00
25498;BME280;13406;53.380;7.226;2023-12-29T07:33:25;100494.59;;;8.10;100.00
25498;BME280;13406;53.380;7.226;2023-12-29T07:35:51;100554.00;;;8.48;100.00
25498;BME280;13406;53.380;7.226;2023-12-29T07:38:16;100476.06;;;8.02;100.00
25498;BME280;13406;53.380;7.226;2023-12-29T07:40:42;100501.13;;;8.22;100.00
25498;BME280;13406;53.380;7.226;2023-12-29T07:43:07;100552.28;;;8.62;100.00
25498;BME280;13406;53.380;7.226;2023-12-29T07:45:33;100529.69;;;8.43;100.00
25498;BME280;13406;53.380;7.226;2023-12-29T07:47:58;100564.19;;;8.59;100.00
25498;BME280;13406;53.380;7.226;2023-12-29T07:50:24;100524.78;;;8.47;100.00
25498;BME280;13406;53.380;7.226;2023-12-29T07:52:49;100558.84;;;8.59;100.00
25498;BME280;13406;53.380;7.226;2023-12-29T07:55:15;100569.03;;;8.71;100.00
25498;BME280;13406;53.380;7.226;2023-12-29T07:57:42;100584.06;;;8.78;100.00
25498;BME280;13406;53.380;7.226;2023-12-29T08:00:09;100592.34;;;8.83;100.00
25498;BME280;13406;53.380;7.226;2023-12-29T08:02:34;100595.47;;;8.87;100.00
25498;BME280;13406;53.380;7.226;2023-12-29T08:05:00;100566.91;;;8.66;100.00
25498;BME280;13406;53.380;7.226;2023-12-29T08:07:26;100574.38;;;8.71;100.00
25498;BME280;13406;53.380;7.226;2023-12-29T08:09:51;100626.31;;;8.83;100.00
25498;BME280;13406;53.380;7.226;2023-12-29T08:12:17;100644.81;;;8.85;100.00
25498;BME280;13406;53.380;7.226;2023-12-29T08:14:42;100629.28;;;8.73;100.00
25498;BME280;13406;53.380;7.226;2023-12-29T08:17:07;100630.38;;;8.79;100.00
25498;BME280;13406;53.380;7.226;2023-12-29T08:19:34;100648.25;;;8.78;100.00
25498;BME280;13406;53.380;7.226;2023-12-29T08:21:59;100648.91;;;8.80;100.00
25498;BME280;13406;53.380;7.226;2023-12-29T08:24:25;100652.84;;;8.85;100.00
25498;BME280;13406;53.380;7.226;2023-12-29T08:26:50;100650.38;;;8.83;100.00
25498;BME280;13406;53.380;7.226;2023-12-29T08:29:15;100636.75;;;8.78;100.00
25498;BME280;13406;53.380;7.226;2023-12-29T08:31:42;100647.09;;;8.88;100.00
25498;BME280;13406;53.380;7.226;2023-12-29T08:34:08;100660.75;;;8.93;100.00
25498;BME280;13406;53.380;7.226;2023-12-29T08:36:33;100643.59;;;8.87;100.00
25498;BME280;13406;53.380;7.226;2023-12-29T08:38:59;100641.38;;;8.91;100.00
25498;BME280;13406;53.380;7.226;2023-12-29T08:41:24;100653.09;;;8.90;100.00
25498;BME280;13406;53.380;7.226;2023-12-29T08:43:50;100572.03;;;8.40;100.00
25498;BME280;13406;53.380;7.226;2023-12-29T08:46:15;100647.63;;;8.98;100.00
25498;BME280;13406;53.380;7.226;2023-12-29T08:48:40;100636.69;;;8.71;100.00
25498;BME280;13406;53.380;7.226;2023-12-29T08:51:06;100571.63;;;8.43;100.00
25498;BME280;13406;53.380;7.226;2023-12-29T08:53:32;100671.69;;;8.98;100.00
25498;BME280;13406;53.380;7.226;2023-12-29T08:56:01;100700.41;;;9.11;100.00
25498;BME280;13406;53.380;7.226;2023-12-29T08:58:27;100685.44;;;8.73;100.00
25498;BME280;13406;53.380;7.226;2023-12-29T09:00:52;100763.84;;;9.17;100.00
25498;BME280;13406;53.380;7.226;2023-12-29T09:03:17;100726.13;;;8.90;100.00
25498;BME280;13406;53.380;7.226;2023-12-29T09:05:43;100742.56;;;8.87;100.00
25498;BME280;13406;53.380;7.226;2023-12-29T09:08:08;100776.16;;;9.11;100.00
25498;BME280;13406;53.380;7.226;2023-12-29T09:10:34;100771.06;;;9.16;100.00
25498;BME280;13406;53.380;7.226;2023-12-29T09:12:59;100604.09;;;7.88;100.00
25498;BME280;13406;53.380;7.226;2023-12-29T09:15:25;100788.84;;;9.24;100.00
25498;BME280;13406;53.380;7.226;2023-12-29T09:17:50;100803.59;;;9.20;100.00
25498;BME280;13406;53.380;7.226;2023-12-29T09:20:16;100743.53;;;8.79;100.00
25498;BME280;13406;53.380;7.226;2023-12-29T09:22:42;100812.50;;;9.20;100.00
25498;BME280;13406;53.380;7.226;2023-12-29T09:25:08;100820.69;;;9.19;100.00
25498;BME280;13406;53.380;7.226;2023-12-29T09:27:33;100807.53;;;9.17;100.00
25498;BME280;13406;53.380;7.226;2023-12-29T09:29:59;100789.53;;;9.11;100.00
25498;BME280;13406;53.380;7.226;2023-12-29T09:32:24;100812.50;;;9.20;100.00
25498;BME280;13406;53.380;7.226;2023-12-29T09:34:50;100799.34;;;9.25;100.00
25498;BME280;13406;53.380;7.226;2023-12-29T09:37:15;100700.09;;;8.77;100.00
25498;BME280;13406;53.380;7.226;2023-12-29T09:39:40;100781.47;;;9.26;100.00
25498;BME280;13406;53.380;7.226;2023-12-29T09:42:07;100773.06;;;9.29;100.00
25498;BME280;13406;53.380;7.226;2023-12-29T09:44:35;100769.16;;;9.32;100.00
25498;BME280;13406;53.380;7.226;2023-12-29T09:47:02;100768.09;;;9.26;100.00
25498;BME280;13406;53.380;7.226;2023-12-29T09:49:38;100687.47;;;8.93;100.00
25498;BME280;13406;53.380;7.226;2023-12-29T09:52:07;100748.44;;;9.19;100.00
25498;BME280;13406;53.380;7.226;2023-12-29T09:54:33;100707.84;;;8.94;100.00
25498;BME280;13406;53.380;7.226;2023-12-29T09:56:59;100749.56;;;9.31;100.00
25498;BME280;13406;53.380;7.226;2023-12-29T09:59:25;100733.84;;;9.21;100.00
25498;BME280;13406;53.380;7.226;2023-12-29T10:01:52;100710.59;;;9.22;100.00
25498;BME280;13406;53.380;7.226;2023-12-29T10:04:19;100713.91;;;9.24;100.00
25498;BME280;13406;53.380;7.226;2023-12-29T10:06:46;100659.53;;;8.95;100.00
25498;BME280;13406;53.380;7.226;2023-12-29T10:09:15;100687.84;;;9.33;100.00
25498;BME280;13406;53.380;7.226;2023-12-29T10:11:46;100695.22;;;9.31;100.00
25498;BME280;13406;53.380;7.226;2023-12-29T10:14:22;100676.00;;;9.20;100.00
25498;BME280;13406;53.380;7.226;2023-12-29T10:16:53;100692.22;;;9.40;100.00
25498;BME280;13406;53.380;7.226;2023-12-29T10:19:42;100709.28;;;9.39;100.00
25498;BME280;13406;53.380;7.226;2023-12-29T10:22:46;100706.63;;;9.39;100.00
25498;BME280;13406;53.380;7.226;2023-12-29T10:25:13;100662.84;;;8.97;100.00
25498;BME280;13406;53.380;7.226;2023-12-29T10:27:39;100680.22;;;9.08;100.00
25498;BME280;13406;53.380;7.226;2023-12-29T10:30:09;100702.94;;;9.19;100.00
25498;BME280;13406;53.380;7.226;2023-12-29T10:32:35;100739.13;;;9.36;100.00
25498;BME280;13406;53.380;7.226;2023-12-29T10:35:10;100730.53;;;9.41;100.00
25498;BME280;13406;53.380;7.226;2023-12-29T10:37:37;100756.22;;;9.35;100.00
25498;BME280;13406;53.380;7.226;2023-12-29T10:40:03;100674.25;;;9.06;100.00
25498;BME280;13406;53.380;7.226;2023-12-29T10:42:29;100723.28;;;9.35;100.00
25498;BME280;13406;53.380;7.226;2023-12-29T10:45:08;100678.63;;;8.92;100.00
25498;BME280;13406;53.380;7.226;2023-12-29T10:47:35;100728.84;;;9.40;100.00
25498;BME280;13406;53.380;7.226;2023-12-29T10:50:02;100676.31;;;9.11;100.00
25498;BME280;13406;53.380;7.226;2023-12-29T10:52:31;100634.41;;;8.96;100.00
25498;BME280;13406;53.380;7.226;2023-12-29T10:55:05;100731.47;;;9.55;100.00
25498;BME280;13406;53.380;7.226;2023-12-29T10:57:31;100719.59;;;9.42;100.00
25498;BME280;13406;53.380;7.226;2023-12-29T10:59:57;100658.53;;;9.24;100.00
25498;BME280;13406;53.380;7.226;2023-12-29T11:02:23;100654.22;;;9.02;100.00
25498;BME280;13406;53.380;7.226;2023-12-29T11:04:48;100783.78;;;9.57;100.00
25498;BME280;13406;53.380;7.226;2023-12-29T11:07:15;100801.38;;;9.66;100.00
25498;BME280;13406;53.380;7.226;2023-12-29T11:09:41;100809.13;;;9.55;100.00
25498;BME280;13406;53.380;7.226;2023-12-29T11:12:09;100838.28;;;9.71;100.00
25498;BME280;13406;53.380;7.226;2023-12-29T11:14:35;100602.16;;;8.33;100.00
25498;BME280;13406;53.380;7.226;2023-12-29T11:17:01;100842.94;;;9.84;100.00
25498;BME280;13406;53.380;7.226;2023-12-29T11:19:27;100899.94;;;9.99;100.00
25498;BME280;13406;53.380;7.226;2023-12-29T11:21:54;100868.19;;;9.74;100.00
25498;BME280;13406;53.380;7.226;2023-12-29T11:24:20;100906.47;;;9.90;100.00
25498;BME280;13406;53.380;7.226;2023-12-29T11:26:51;100903.31;;;9.86;100.00
25498;BME280;13406;53.380;7.226;2023-12-29T11:29:18;100934.03;;;9.84;100.00
25498;BME280;13406;53.380;7.226;2023-12-29T11:31:45;100878.25;;;9.30;100.00
25498;BME280;13406;53.380;7.226;2023-12-29T11:36:45;100915.56;;;9.53;100.00
25498;BME280;13406;53.380;7.226;2023-12-29T11:39:23;100918.38;;;9.44;100.00
25498;BME280;13406;53.380;7.226;2023-12-29T11:41:59;100919.41;;;9.43;100.00
25498;BME280;13406;53.380;7.226;2023-12-29T11:44:27;100905.75;;;9.38;100.00
25498;BME280;13406;53.380;7.226;2023-12-29T11:46:53;100920.88;;;9.67;100.00
25498;BME280;13406;53.380;7.226;2023-12-29T11:49:19;100938.81;;;9.67;100.00
25498;BME280;13406;53.380;7.226;2023-12-29T11:51:49;100936.72;;;9.84;100.00
25498;BME280;13406;53.380;7.226;2023-12-29T11:54:26;100909.47;;;9.59;100.00
25498;BME280;13406;53.380;7.226;2023-12-29T11:56:52;100952.00;;;9.90;100.00
25498;BME280;13406;53.380;7.226;2023-12-29T11:59:20;100985.81;;;9.91;100.00
25498;BME280;13406;53.380;7.226;2023-12-29T12:02:06;100981.16;;;10.00;100.00
25498;BME280;13406;53.380;7.226;2023-12-29T12:04:51;100995.38;;;9.79;100.00
25498;BME280;13406;53.380;7.226;2023-12-29T12:07:56;100974.50;;;9.74;100.00
25498;BME280;13406;53.380;7.226;2023-12-29T12:12:47;100994.59;;;10.06;100.00
25498;BME280;13406;53.380;7.226;2023-12-29T12:18:04;101010.69;;;10.06;100.00
25498;BME280;13406;53.380;7.226;2023-12-29T12:20:33;100998.38;;;10.12;100.00
25498;BME280;13406;53.380;7.226;2023-12-29T12:23:02;100984.75;;;10.07;100.00
25498;BME280;13406;53.380;7.226;2023-12-29T12:25:30;100968.88;;;10.12;100.00
25498;BME280;13406;53.380;7.226;2023-12-29T12:27:56;100932.28;;;10.19;100.00
25498;BME280;13406;53.380;7.226;2023-12-29T12:30:22;100965.91;;;10.22;100.00
25498;BME280;13406;53.380;7.226;2023-12-29T12:33:03;100923.16;;;9.92;100.00
25498;BME280;13406;53.380;7.226;2023-12-29T12:35:30;100985.44;;;10.15;100.00
25498;BME280;13406;53.380;7.226;2023-12-29T12:38:12;100987.53;;;10.20;100.00
25498;BME280;13406;53.380;7.226;2023-12-29T12:40:37;101000.13;;;9.98;100.00
25498;BME280;13406;53.380;7.226;2023-12-29T12:43:03;101022.72;;;10.10;100.00
25498;BME280;13406;53.380;7.226;2023-12-29T12:45:33;100998.00;;;9.93;100.00
25498;BME280;13406;53.380;7.226;2023-12-29T12:48:09;101041.53;;;9.95;100.00
25498;BME280;13406;53.380;7.226;2023-12-29T12:50:35;100938.59;;;9.47;100.00
25498;BME280;13406;53.380;7.226;2023-12-29T12:53:01;100985.75;;;9.84;100.00
25498;BME280;13406;53.380;7.226;2023-12-29T12:55:32;101008.78;;;9.79;100.00